Anzahl Datensätze: 48
min. Temperatur: 11.4 °C
max. Temperatur: 21.3 °C
max. Windgeschwindigkeit: 19.4 km/h
Niederschlagsumme: 0.0 mm
| Datum |
Zeit |
Temp °C |
Feuchte % |
Taupunkt °C |
Luftdruck hPa |
Wind km/h |
Windrichtung |
Strahlung w/m² |
Niederschlag mm |
|---|---|---|---|---|---|---|---|---|---|
| 26.08.2023 | 00:00 | 18.9 | 89 | 17.0 | 1011.8 | 0.0 | WSW | 0 | 0.0 |
| 26.08.2023 | 00:30 | 18.3 | 88 | 16.3 | 1012.3 | 0.0 | NNW | 0 | 0.0 |
| 26.08.2023 | 01:00 | 17.4 | 89 | 15.6 | 1012.3 | 0.0 | NNW | 0 | 0.0 |
| 26.08.2023 | 01:30 | 16.8 | 88 | 14.8 | 1012.5 | 0.0 | WNW | 0 | 0.0 |
| 26.08.2023 | 02:00 | 16.0 | 85 | 13.5 | 1012.6 | 0.0 | NW | 0 | 0.0 |
| 26.08.2023 | 02:30 | 15.2 | 86 | 12.9 | 1012.4 | 0.0 | NNW | 0 | 0.0 |
| 26.08.2023 | 03:00 | 14.5 | 89 | 12.7 | 1012.6 | 0.0 | NW | 0 | 0.0 |
| 26.08.2023 | 03:30 | 14.1 | 89 | 12.3 | 1012.8 | 0.0 | NW | 0 | 0.0 |
| 26.08.2023 | 04:00 | 13.4 | 89 | 11.6 | 1013.1 | 0.0 | NW | 0 | 0.0 |
| 26.08.2023 | 04:30 | 13.0 | 91 | 11.6 | 1013.1 | 0.0 | NW | 0 | 0.0 |
| 26.08.2023 | 05:00 | 13.1 | 92 | 11.8 | 1013.2 | 0.0 | OSO | 0 | 0.0 |
| 26.08.2023 | 05:30 | 12.5 | 91 | 11.1 | 1013.3 | 0.0 | OSO | 0 | 0.0 |
| 26.08.2023 | 06:00 | 11.9 | 92 | 10.6 | 1013.5 | 0.0 | OSO | 0 | 0.0 |
| 26.08.2023 | 06:30 | 11.4 | 92 | 10.1 | 1013.6 | 0.0 | OSO | 0 | 0.0 |
| 26.08.2023 | 07:00 | 11.4 | 92 | 10.1 | 1013.9 | 0.0 | OSO | 14 | 0.0 |
| 26.08.2023 | 07:30 | 12.0 | 94 | 11.1 | 1014.1 | 0.0 | OSO | 53 | 0.0 |
| 26.08.2023 | 08:00 | 12.6 | 91 | 11.2 | 1014.2 | 0.0 | N | 35 | 0.0 |
| 26.08.2023 | 08:30 | 12.9 | 91 | 11.5 | 1014.2 | 0.0 | O | 86 | 0.0 |
| 26.08.2023 | 09:00 | 13.9 | 91 | 12.5 | 1014.0 | 0.0 | O | 373 | 0.0 |
| 26.08.2023 | 09:30 | 15.4 | 88 | 13.4 | 1013.9 | 0.0 | SSO | 425 | 0.0 |
| 26.08.2023 | 10:00 | 17.1 | 78 | 13.2 | 1013.7 | 0.0 | WSW | 517 | 0.0 |
| 26.08.2023 | 10:30 | 17.7 | 76 | 13.4 | 1013.9 | 0.0 | W | 374 | 0.0 |
| 26.08.2023 | 11:00 | 17.7 | 76 | 13.4 | 1013.7 | 0.0 | WSW | 199 | 0.0 |
| 26.08.2023 | 11:30 | 18.4 | 71 | 13.0 | 1013.7 | 0.0 | NW | 772 | 0.0 |
| 26.08.2023 | 12:00 | 18.8 | 71 | 13.4 | 1013.7 | 0.0 | WSW | 288 | 0.0 |
| 26.08.2023 | 12:30 | 19.6 | 70 | 14.0 | 1013.5 | 0.0 | W | 207 | 0.0 |
| 26.08.2023 | 13:00 | 19.7 | 67 | 13.4 | 1013.4 | 0.0 | SW | 225 | 0.0 |
| 26.08.2023 | 13:30 | 19.7 | 68 | 13.6 | 1013.1 | 0.0 | WNW | 251 | 0.0 |
| 26.08.2023 | 14:00 | 20.3 | 66 | 13.7 | 1013.1 | 0.0 | SW | 969 | 0.0 |
| 26.08.2023 | 14:30 | 21.0 | 62 | 13.4 | 1013.2 | 0.0 | NW | 907 | 0.0 |
| 26.08.2023 | 15:00 | 21.3 | 61 | 13.5 | 1013.2 | 0.0 | NNW | 954 | 0.0 |
| 26.08.2023 | 15:30 | 21.0 | 59 | 12.7 | 1013.3 | 0.0 | WNW | 766 | 0.0 |
| 26.08.2023 | 16:00 | 21.1 | 59 | 12.8 | 1013.4 | 0.0 | WNW | 202 | 0.0 |
| 26.08.2023 | 16:30 | 20.1 | 65 | 13.3 | 1013.6 | 1.4 | W | 185 | 0.0 |
| 26.08.2023 | 17:00 | 20.2 | 65 | 13.4 | 1013.3 | 1.4 | WSW | 139 | 0.0 |
| 26.08.2023 | 17:30 | 19.7 | 68 | 13.6 | 1013.2 | 1.4 | NNW | 550 | 0.0 |
| 26.08.2023 | 18:00 | 19.6 | 69 | 13.8 | 1013.0 | 1.4 | NNW | 91 | 0.0 |
| 26.08.2023 | 18:30 | 19.3 | 72 | 14.1 | 1012.6 | 0.0 | WSW | 33 | 0.0 |
| 26.08.2023 | 19:00 | 19.1 | 69 | 13.3 | 1012.7 | 0.0 | WSW | 23 | 0.0 |
| 26.08.2023 | 19:30 | 18.7 | 73 | 13.8 | 1013.0 | 0.0 | WSW | 30 | 0.0 |
| 26.08.2023 | 20:00 | 18.3 | 74 | 13.6 | 1013.1 | 0.0 | WSW | 14 | 0.0 |
| 26.08.2023 | 20:30 | 18.1 | 77 | 14.0 | 1013.2 | 0.0 | WSW | 0 | 0.0 |
| 26.08.2023 | 21:00 | 17.2 | 80 | 13.7 | 1013.3 | 0.0 | OSO | 0 | 0.0 |
| 26.08.2023 | 21:30 | 16.2 | 82 | 13.1 | 1013.4 | 0.0 | OSO | 0 | 0.0 |
| 26.08.2023 | 22:00 | 15.5 | 83 | 12.6 | 1013.4 | 0.0 | OSO | 0 | 0.0 |
| 26.08.2023 | 22:30 | 14.9 | 84 | 12.2 | 1013.1 | 0.0 | OSO | 0 | 0.0 |
| 26.08.2023 | 23:00 | 14.6 | 87 | 12.5 | 1012.9 | 0.0 | OSO | 0 | 0.0 |
| 26.08.2023 | 23:30 | 13.9 | 87 | 11.8 | 1013.1 | 0.0 | OSO | 0 | 0.0 |